sensor_id;sensor_type;location;lat;lon;timestamp;P1;durP1;ratioP1;P2;durP2;ratioP2
36213;SDS011;37652;50.400;30.628;2022-10-01T00:00:14;65.20;;;43.92;;
36213;SDS011;37652;50.400;30.628;2022-10-01T00:02:15;66.70;;;44.53;;
36213;SDS011;37652;50.400;30.628;2022-10-01T00:04:16;64.15;;;43.33;;
36213;SDS011;37652;50.400;30.628;2022-10-01T00:06:17;59.30;;;42.88;;
36213;SDS011;37652;50.400;30.628;2022-10-01T00:08:19;64.28;;;44.05;;
36213;SDS011;37652;50.400;30.628;2022-10-01T00:10:19;60.22;;;44.28;;
36213;SDS011;37652;50.400;30.628;2022-10-01T00:12:21;59.53;;;41.20;;
36213;SDS011;37652;50.400;30.628;2022-10-01T00:14:21;61.38;;;41.53;;
36213;SDS011;37652;50.400;30.628;2022-10-01T00:16:23;62.33;;;44.97;;
36213;SDS011;37652;50.400;30.628;2022-10-01T00:18:25;61.00;;;43.03;;
36213;SDS011;37652;50.400;30.628;2022-10-01T00:20:26;64.50;;;43.40;;
36213;SDS011;37652;50.400;30.628;2022-10-01T00:22:28;72.43;;;48.63;;
36213;SDS011;37652;50.400;30.628;2022-10-01T00:24:31;66.07;;;45.42;;
36213;SDS011;37652;50.400;30.628;2022-10-01T00:26:33;62.80;;;44.45;;
36213;SDS011;37652;50.400;30.628;2022-10-01T00:28:36;70.25;;;46.53;;
36213;SDS011;37652;50.400;30.628;2022-10-01T00:30:36;76.22;;;44.80;;
36213;SDS011;37652;50.400;30.628;2022-10-01T00:32:37;61.10;;;43.83;;
36213;SDS011;37652;50.400;30.628;2022-10-01T00:34:40;61.40;;;41.10;;
36213;SDS011;37652;50.400;30.628;2022-10-01T00:36:40;56.20;;;38.75;;
36213;SDS011;37652;50.400;30.628;2022-10-01T00:38:41;61.08;;;40.05;;
36213;SDS011;37652;50.400;30.628;2022-10-01T00:40:42;60.65;;;41.88;;
36213;SDS011;37652;50.400;30.628;2022-10-01T00:42:42;60.22;;;43.05;;
36213;SDS011;37652;50.400;30.628;2022-10-01T00:44:43;61.53;;;42.90;;
36213;SDS011;37652;50.400;30.628;2022-10-01T00:46:45;55.40;;;38.05;;
36213;SDS011;37652;50.400;30.628;2022-10-01T00:48:53;54.72;;;40.13;;
36213;SDS011;37652;50.400;30.628;2022-10-01T00:51:16;54.13;;;38.90;;
36213;SDS011;37652;50.400;30.628;2022-10-01T00:53:16;52.15;;;37.25;;
36213;SDS011;37652;50.400;30.628;2022-10-01T00:55:27;55.00;;;38.97;;
36213;SDS011;37652;50.400;30.628;2022-10-01T00:57:40;54.80;;;39.92;;
36213;SDS011;37652;50.400;30.628;2022-10-01T00:59:42;56.00;;;40.50;;
36213;SDS011;37652;50.400;30.628;2022-10-01T01:01:44;53.10;;;39.42;;
36213;SDS011;37652;50.400;30.628;2022-10-01T01:03:45;53.42;;;38.55;;
36213;SDS011;37652;50.400;30.628;2022-10-01T01:05:46;52.83;;;37.92;;
36213;SDS011;37652;50.400;30.628;2022-10-01T01:07:49;55.83;;;38.67;;
36213;SDS011;37652;50.400;30.628;2022-10-01T01:09:51;48.67;;;36.38;;
36213;SDS011;37652;50.400;30.628;2022-10-01T01:12:17;49.53;;;36.55;;
36213;SDS011;37652;50.400;30.628;2022-10-01T01:16:42;47.38;;;35.20;;
36213;SDS011;37652;50.400;30.628;2022-10-01T01:21:05;47.22;;;34.97;;
36213;SDS011;37652;50.400;30.628;2022-10-01T01:25:17;44.97;;;33.28;;
36213;SDS011;37652;50.400;30.628;2022-10-01T01:27:37;43.83;;;32.67;;
36213;SDS011;37652;50.400;30.628;2022-10-01T01:29:49;43.85;;;32.78;;
36213;SDS011;37652;50.400;30.628;2022-10-01T01:32:05;39.08;;;30.45;;
36213;SDS011;37652;50.400;30.628;2022-10-01T01:34:11;43.72;;;32.50;;
36213;SDS011;37652;50.400;30.628;2022-10-01T01:36:22;39.95;;;31.08;;
36213;SDS011;37652;50.400;30.628;2022-10-01T01:38:28;39.42;;;30.48;;
36213;SDS011;37652;50.400;30.628;2022-10-01T01:40:33;41.08;;;29.27;;
36213;SDS011;37652;50.400;30.628;2022-10-01T01:42:36;40.17;;;30.92;;
36213;SDS011;37652;50.400;30.628;2022-10-01T01:44:40;39.08;;;30.65;;
36213;SDS011;37652;50.400;30.628;2022-10-01T01:46:44;39.47;;;29.75;;
36213;SDS011;37652;50.400;30.628;2022-10-01T01:48:48;40.38;;;30.17;;
36213;SDS011;37652;50.400;30.628;2022-10-01T01:51:03;38.60;;;28.65;;
36213;SDS011;37652;50.400;30.628;2022-10-01T01:53:10;38.33;;;30.75;;
36213;SDS011;37652;50.400;30.628;2022-10-01T01:55:11;36.17;;;27.48;;
36213;SDS011;37652;50.400;30.628;2022-10-01T01:57:12;34.75;;;26.58;;
36213;SDS011;37652;50.400;30.628;2022-10-01T01:59:15;36.45;;;27.75;;
36213;SDS011;37652;50.400;30.628;2022-10-01T02:01:30;36.45;;;27.85;;
36213;SDS011;37652;50.400;30.628;2022-10-01T02:03:39;34.25;;;26.92;;
36213;SDS011;37652;50.400;30.628;2022-10-01T02:05:45;35.67;;;27.65;;
36213;SDS011;37652;50.400;30.628;2022-10-01T02:08:22;40.17;;;27.70;;
36213;SDS011;37652;50.400;30.628;2022-10-01T02:10:53;33.40;;;26.92;;
36213;SDS011;37652;50.400;30.628;2022-10-01T02:17:53;38.53;;;29.08;;
36213;SDS011;37652;50.400;30.628;2022-10-01T02:20:06;38.20;;;27.63;;
36213;SDS011;37652;50.400;30.628;2022-10-01T02:22:18;34.00;;;27.60;;
36213;SDS011;37652;50.400;30.628;2022-10-01T02:26:34;34.80;;;26.67;;
36213;SDS011;37652;50.400;30.628;2022-10-01T02:28:36;40.05;;;27.75;;
36213;SDS011;37652;50.400;30.628;2022-10-01T02:30:40;36.85;;;26.85;;
36213;SDS011;37652;50.400;30.628;2022-10-01T02:32:45;37.47;;;28.50;;
36213;SDS011;37652;50.400;30.628;2022-10-01T02:34:48;33.67;;;25.23;;
36213;SDS011;37652;50.400;30.628;2022-10-01T02:36:50;35.88;;;27.60;;
36213;SDS011;37652;50.400;30.628;2022-10-01T02:38:52;33.70;;;25.00;;
36213;SDS011;37652;50.400;30.628;2022-10-01T02:40:55;29.85;;;24.77;;
36213;SDS011;37652;50.400;30.628;2022-10-01T02:43:02;37.38;;;25.17;;
36213;SDS011;37652;50.400;30.628;2022-10-01T02:45:08;31.48;;;25.05;;
36213;SDS011;37652;50.400;30.628;2022-10-01T02:47:20;30.55;;;24.17;;
36213;SDS011;37652;50.400;30.628;2022-10-01T02:54:00;25.65;;;21.27;;
36213;SDS011;37652;50.400;30.628;2022-10-01T02:56:08;26.85;;;20.77;;
36213;SDS011;37652;50.400;30.628;2022-10-01T02:58:11;26.27;;;21.58;;
36213;SDS011;37652;50.400;30.628;2022-10-01T03:00:14;26.80;;;21.48;;
36213;SDS011;37652;50.400;30.628;2022-10-01T03:02:20;24.67;;;20.02;;
36213;SDS011;37652;50.400;30.628;2022-10-01T03:06:22;23.20;;;19.17;;
36213;SDS011;37652;50.400;30.628;2022-10-01T03:08:22;22.05;;;19.15;;
36213;SDS011;37652;50.400;30.628;2022-10-01T03:10:23;25.25;;;19.02;;
36213;SDS011;37652;50.400;30.628;2022-10-01T03:12:24;23.17;;;18.65;;
36213;SDS011;37652;50.400;30.628;2022-10-01T03:14:24;24.45;;;19.45;;
36213;SDS011;37652;50.400;30.628;2022-10-01T03:16:25;20.08;;;17.33;;
36213;SDS011;37652;50.400;30.628;2022-10-01T03:18:26;18.63;;;16.63;;
36213;SDS011;37652;50.400;30.628;2022-10-01T03:20:27;20.08;;;15.30;;
36213;SDS011;37652;50.400;30.628;2022-10-01T03:22:28;19.55;;;15.55;;
36213;SDS011;37652;50.400;30.628;2022-10-01T03:26:29;20.37;;;16.17;;
36213;SDS011;37652;50.400;30.628;2022-10-01T03:28:30;19.15;;;13.68;;
36213;SDS011;37652;50.400;30.628;2022-10-01T03:30:31;16.90;;;13.73;;
36213;SDS011;37652;50.400;30.628;2022-10-01T03:32:32;16.45;;;14.25;;
36213;SDS011;37652;50.400;30.628;2022-10-01T03:34:33;18.10;;;14.38;;
36213;SDS011;37652;50.400;30.628;2022-10-01T03:36:34;19.83;;;15.57;;
36213;SDS011;37652;50.400;30.628;2022-10-01T03:38:35;15.90;;;14.20;;
36213;SDS011;37652;50.400;30.628;2022-10-01T03:40:36;16.00;;;14.30;;
36213;SDS011;37652;50.400;30.628;2022-10-01T03:42:38;15.55;;;13.85;;
36213;SDS011;37652;50.400;30.628;2022-10-01T03:44:39;16.92;;;15.10;;
36213;SDS011;37652;50.400;30.628;2022-10-01T03:46:39;15.25;;;13.55;;
36213;SDS011;37652;50.400;30.628;2022-10-01T03:48:40;16.48;;;14.48;;
36213;SDS011;37652;50.400;30.628;2022-10-01T03:50:41;16.20;;;14.15;;
36213;SDS011;37652;50.400;30.628;2022-10-01T03:52:41;16.08;;;13.57;;
36213;SDS011;37652;50.400;30.628;2022-10-01T03:54:44;16.95;;;14.75;;
36213;SDS011;37652;50.400;30.628;2022-10-01T03:56:46;17.60;;;13.40;;
36213;SDS011;37652;50.400;30.628;2022-10-01T03:58:47;14.13;;;12.63;;
36213;SDS011;37652;50.400;30.628;2022-10-01T04:00:48;16.73;;;13.77;;
36213;SDS011;37652;50.400;30.628;2022-10-01T04:04:50;14.27;;;11.83;;
36213;SDS011;37652;50.400;30.628;2022-10-01T04:06:51;15.23;;;12.80;;
36213;SDS011;37652;50.400;30.628;2022-10-01T04:08:51;14.52;;;12.73;;
36213;SDS011;37652;50.400;30.628;2022-10-01T04:10:52;14.07;;;12.68;;
36213;SDS011;37652;50.400;30.628;2022-10-01T04:12:53;14.07;;;12.60;;
36213;SDS011;37652;50.400;30.628;2022-10-01T04:14:54;12.70;;;11.45;;
36213;SDS011;37652;50.400;30.628;2022-10-01T04:16:55;13.52;;;12.15;;
36213;SDS011;37652;50.400;30.628;2022-10-01T04:18:56;15.30;;;13.40;;
36213;SDS011;37652;50.400;30.628;2022-10-01T04:20:56;14.05;;;12.50;;
36213;SDS011;37652;50.400;30.628;2022-10-01T04:22:57;14.27;;;12.68;;
36213;SDS011;37652;50.400;30.628;2022-10-01T04:24:58;16.05;;;13.23;;
36213;SDS011;37652;50.400;30.628;2022-10-01T04:26:58;15.18;;;13.60;;
36213;SDS011;37652;50.400;30.628;2022-10-01T04:28:59;26.08;;;14.77;;
36213;SDS011;37652;50.400;30.628;2022-10-01T04:31:00;14.25;;;12.80;;
36213;SDS011;37652;50.400;30.628;2022-10-01T04:33:19;15.38;;;13.13;;
36213;SDS011;37652;50.400;30.628;2022-10-01T04:35:20;18.73;;;12.80;;
36213;SDS011;37652;50.400;30.628;2022-10-01T04:37:22;15.43;;;13.80;;
36213;SDS011;37652;50.400;30.628;2022-10-01T04:39:23;18.77;;;13.95;;
36213;SDS011;37652;50.400;30.628;2022-10-01T04:41:23;17.10;;;14.10;;
36213;SDS011;37652;50.400;30.628;2022-10-01T04:43:25;16.85;;;13.23;;
36213;SDS011;37652;50.400;30.628;2022-10-01T04:45:25;15.70;;;13.27;;
36213;SDS011;37652;50.400;30.628;2022-10-01T04:47:26;18.17;;;14.25;;
36213;SDS011;37652;50.400;30.628;2022-10-01T04:49:27;15.43;;;12.63;;
36213;SDS011;37652;50.400;30.628;2022-10-01T04:51:27;14.93;;;12.88;;
36213;SDS011;37652;50.400;30.628;2022-10-01T04:53:28;15.20;;;13.70;;
36213;SDS011;37652;50.400;30.628;2022-10-01T04:55:29;17.23;;;13.32;;
36213;SDS011;37652;50.400;30.628;2022-10-01T04:57:30;15.77;;;12.93;;
36213;SDS011;37652;50.400;30.628;2022-10-01T04:59:31;19.38;;;14.23;;
36213;SDS011;37652;50.400;30.628;2022-10-01T05:03:32;16.87;;;14.77;;
36213;SDS011;37652;50.400;30.628;2022-10-01T05:05:33;19.08;;;15.07;;
36213;SDS011;37652;50.400;30.628;2022-10-01T05:07:34;19.75;;;15.30;;
36213;SDS011;37652;50.400;30.628;2022-10-01T05:09:35;18.17;;;14.93;;
36213;SDS011;37652;50.400;30.628;2022-10-01T05:11:36;16.55;;;14.73;;
36213;SDS011;37652;50.400;30.628;2022-10-01T05:13:38;16.10;;;13.50;;
36213;SDS011;37652;50.400;30.628;2022-10-01T05:15:38;17.10;;;14.73;;
36213;SDS011;37652;50.400;30.628;2022-10-01T05:17:39;19.30;;;14.45;;
36213;SDS011;37652;50.400;30.628;2022-10-01T05:19:39;21.13;;;15.82;;
36213;SDS011;37652;50.400;30.628;2022-10-01T05:21:40;17.30;;;15.50;;
36213;SDS011;37652;50.400;30.628;2022-10-01T05:23:42;18.05;;;15.25;;
36213;SDS011;37652;50.400;30.628;2022-10-01T05:25:42;28.92;;;18.38;;
36213;SDS011;37652;50.400;30.628;2022-10-01T05:27:45;27.45;;;20.17;;
36213;SDS011;37652;50.400;30.628;2022-10-01T05:29:46;18.50;;;15.02;;
36213;SDS011;37652;50.400;30.628;2022-10-01T05:31:47;17.80;;;14.10;;
36213;SDS011;37652;50.400;30.628;2022-10-01T05:35:49;16.43;;;14.70;;
36213;SDS011;37652;50.400;30.628;2022-10-01T05:39:52;19.13;;;15.65;;
36213;SDS011;37652;50.400;30.628;2022-10-01T05:41:53;14.05;;;12.63;;
36213;SDS011;37652;50.400;30.628;2022-10-01T05:43:55;16.45;;;13.13;;
36213;SDS011;37652;50.400;30.628;2022-10-01T05:45:59;16.90;;;13.82;;
36213;SDS011;37652;50.400;30.628;2022-10-01T05:48:02;15.82;;;13.90;;
36213;SDS011;37652;50.400;30.628;2022-10-01T05:50:04;15.43;;;13.27;;
36213;SDS011;37652;50.400;30.628;2022-10-01T05:54:06;15.93;;;13.93;;
36213;SDS011;37652;50.400;30.628;2022-10-01T05:56:07;15.95;;;13.45;;
36213;SDS011;37652;50.400;30.628;2022-10-01T05:58:10;14.65;;;13.15;;
36213;SDS011;37652;50.400;30.628;2022-10-01T06:00:12;19.90;;;14.05;;
36213;SDS011;37652;50.400;30.628;2022-10-01T06:02:13;16.90;;;13.65;;
36213;SDS011;37652;50.400;30.628;2022-10-01T06:04:14;19.73;;;13.98;;
36213;SDS011;37652;50.400;30.628;2022-10-01T06:06:14;15.18;;;13.45;;
36213;SDS011;37652;50.400;30.628;2022-10-01T06:08:22;18.02;;;14.48;;
36213;SDS011;37652;50.400;30.628;2022-10-01T06:10:24;15.90;;;13.27;;
36213;SDS011;37652;50.400;30.628;2022-10-01T06:14:25;15.07;;;13.38;;
36213;SDS011;37652;50.400;30.628;2022-10-01T06:16:27;15.35;;;13.30;;
36213;SDS011;37652;50.400;30.628;2022-10-01T06:20:28;13.83;;;12.33;;
36213;SDS011;37652;50.400;30.628;2022-10-01T06:22:29;14.10;;;12.68;;
36213;SDS011;37652;50.400;30.628;2022-10-01T06:24:30;15.18;;;11.98;;
36213;SDS011;37652;50.400;30.628;2022-10-01T06:26:31;14.32;;;11.50;;
36213;SDS011;37652;50.400;30.628;2022-10-01T06:28:32;14.30;;;11.38;;
36213;SDS011;37652;50.400;30.628;2022-10-01T06:30:34;12.95;;;11.65;;
36213;SDS011;37652;50.400;30.628;2022-10-01T06:32:35;11.88;;;10.38;;
36213;SDS011;37652;50.400;30.628;2022-10-01T06:34:36;12.95;;;10.98;;
36213;SDS011;37652;50.400;30.628;2022-10-01T06:36:37;14.15;;;9.98;;
36213;SDS011;37652;50.400;30.628;2022-10-01T06:38:38;11.25;;;9.23;;
36213;SDS011;37652;50.400;30.628;2022-10-01T06:40:39;10.25;;;9.20;;
36213;SDS011;37652;50.400;30.628;2022-10-01T06:42:45;8.68;;;7.78;;
36213;SDS011;37652;50.400;30.628;2022-10-01T06:44:49;9.13;;;7.72;;
36213;SDS011;37652;50.400;30.628;2022-10-01T06:46:50;7.47;;;6.82;;
36213;SDS011;37652;50.400;30.628;2022-10-01T06:48:53;8.73;;;7.90;;
36213;SDS011;37652;50.400;30.628;2022-10-01T06:50:54;9.07;;;7.78;;
36213;SDS011;37652;50.400;30.628;2022-10-01T06:52:55;10.07;;;6.63;;
36213;SDS011;37652;50.400;30.628;2022-10-01T06:54:56;8.15;;;6.85;;
36213;SDS011;37652;50.400;30.628;2022-10-01T06:56:59;8.30;;;6.15;;
36213;SDS011;37652;50.400;30.628;2022-10-01T06:58:59;6.35;;;5.70;;
36213;SDS011;37652;50.400;30.628;2022-10-01T07:01:00;7.00;;;5.65;;
36213;SDS011;37652;50.400;30.628;2022-10-01T07:03:03;9.63;;;6.00;;
36213;SDS011;37652;50.400;30.628;2022-10-01T07:05:05;7.25;;;5.10;;
36213;SDS011;37652;50.400;30.628;2022-10-01T07:07:07;8.90;;;7.53;;
36213;SDS011;37652;50.400;30.628;2022-10-01T07:11:09;9.23;;;5.83;;
36213;SDS011;37652;50.400;30.628;2022-10-01T07:13:10;5.50;;;5.03;;
36213;SDS011;37652;50.400;30.628;2022-10-01T07:15:17;5.47;;;4.97;;
36213;SDS011;37652;50.400;30.628;2022-10-01T07:17:20;4.60;;;4.20;;
36213;SDS011;37652;50.400;30.628;2022-10-01T07:19:21;5.43;;;4.70;;
36213;SDS011;37652;50.400;30.628;2022-10-01T07:21:22;6.40;;;3.90;;
36213;SDS011;37652;50.400;30.628;2022-10-01T07:23:22;5.20;;;3.63;;
36213;SDS011;37652;50.400;30.628;2022-10-01T07:25:24;9.73;;;4.40;;
36213;SDS011;37652;50.400;30.628;2022-10-01T07:27:25;6.03;;;4.03;;
36213;SDS011;37652;50.400;30.628;2022-10-01T07:29:26;5.63;;;3.92;;
36213;SDS011;37652;50.400;30.628;2022-10-01T07:31:28;3.53;;;3.22;;
36213;SDS011;37652;50.400;30.628;2022-10-01T07:33:28;4.38;;;3.45;;
36213;SDS011;37652;50.400;30.628;2022-10-01T07:35:29;4.93;;;3.58;;
36213;SDS011;37652;50.400;30.628;2022-10-01T07:37:30;3.53;;;3.25;;
36213;SDS011;37652;50.400;30.628;2022-10-01T07:41:32;6.53;;;3.33;;
36213;SDS011;37652;50.400;30.628;2022-10-01T07:43:33;4.65;;;2.85;;
36213;SDS011;37652;50.400;30.628;2022-10-01T07:45:35;3.40;;;3.10;;
36213;SDS011;37652;50.400;30.628;2022-10-01T07:49:37;3.80;;;3.50;;
36213;SDS011;37652;50.400;30.628;2022-10-01T07:51:38;3.13;;;2.92;;
36213;SDS011;37652;50.400;30.628;2022-10-01T07:53:42;6.43;;;2.92;;
36213;SDS011;37652;50.400;30.628;2022-10-01T07:57:48;5.85;;;2.53;;
36213;SDS011;37652;50.400;30.628;2022-10-01T07:59:54;2.80;;;2.60;;
36213;SDS011;37652;50.400;30.628;2022-10-01T08:03:55;7.53;;;2.27;;
36213;SDS011;37652;50.400;30.628;2022-10-01T08:08:00;3.97;;;2.70;;
36213;SDS011;37652;50.400;30.628;2022-10-01T08:10:02;5.18;;;2.35;;
36213;SDS011;37652;50.400;30.628;2022-10-01T08:12:03;2.40;;;2.20;;
36213;SDS011;37652;50.400;30.628;2022-10-01T08:16:05;3.27;;;2.60;;
36213;SDS011;37652;50.400;30.628;2022-10-01T08:18:08;2.92;;;2.38;;
36213;SDS011;37652;50.400;30.628;2022-10-01T08:20:11;2.60;;;2.40;;
36213;SDS011;37652;50.400;30.628;2022-10-01T08:22:12;3.22;;;2.38;;
36213;SDS011;37652;50.400;30.628;2022-10-01T08:26:14;2.80;;;2.30;;
36213;SDS011;37652;50.400;30.628;2022-10-01T08:30:15;2.33;;;2.10;;
36213;SDS011;37652;50.400;30.628;2022-10-01T08:34:16;3.10;;;2.80;;
36213;SDS011;37652;50.400;30.628;2022-10-01T08:38:18;3.08;;;2.88;;
36213;SDS011;37652;50.400;30.628;2022-10-01T08:40:19;4.53;;;2.88;;
36213;SDS011;37652;50.400;30.628;2022-10-01T08:44:46;5.22;;;2.47;;
36213;SDS011;37652;50.400;30.628;2022-10-01T08:46:50;6.07;;;2.90;;
36213;SDS011;37652;50.400;30.628;2022-10-01T08:49:00;3.25;;;2.08;;
36213;SDS011;37652;50.400;30.628;2022-10-01T08:53:47;1.85;;;1.73;;
36213;SDS011;37652;50.400;30.628;2022-10-01T08:55:58;4.43;;;1.77;;
36213;SDS011;37652;50.400;30.628;2022-10-01T08:58:08;1.58;;;1.48;;
36213;SDS011;37652;50.400;30.628;2022-10-01T09:00:15;2.05;;;1.50;;
36213;SDS011;37652;50.400;30.628;2022-10-01T09:04:18;1.45;;;1.10;;
36213;SDS011;37652;50.400;30.628;2022-10-01T09:06:20;1.70;;;1.38;;
36213;SDS011;37652;50.400;30.628;2022-10-01T09:10:43;2.50;;;1.25;;
36213;SDS011;37652;50.400;30.628;2022-10-01T09:20:10;2.90;;;1.30;;
36213;SDS011;37652;50.400;30.628;2022-10-01T09:26:49;1.65;;;1.30;;
36213;SDS011;37652;50.400;30.628;2022-10-01T09:28:51;2.13;;;0.93;;
36213;SDS011;37652;50.400;30.628;2022-10-01T09:33:17;3.00;;;1.77;;
36213;SDS011;37652;50.400;30.628;2022-10-01T09:37:39;1.65;;;1.45;;
36213;SDS011;37652;50.400;30.628;2022-10-01T09:42:09;1.30;;;0.95;;
36213;SDS011;37652;50.400;30.628;2022-10-01T09:44:14;3.05;;;1.00;;
36213;SDS011;37652;50.400;30.628;2022-10-01T09:46:17;2.38;;;0.88;;
36213;SDS011;37652;50.400;30.628;2022-10-01T09:50:40;0.85;;;0.70;;
36213;SDS011;37652;50.400;30.628;2022-10-01T09:52:49;1.10;;;1.02;;
36213;SDS011;37652;50.400;30.628;2022-10-01T09:54:53;1.13;;;0.90;;
36213;SDS011;37652;50.400;30.628;2022-10-01T10:02:22;1.10;;;1.02;;
36213;SDS011;37652;50.400;30.628;2022-10-01T10:04:30;1.77;;;1.67;;
36213;SDS011;37652;50.400;30.628;2022-10-01T10:06:32;2.33;;;1.25;;
36213;SDS011;37652;50.400;30.628;2022-10-01T10:08:34;2.85;;;0.93;;
36213;SDS011;37652;50.400;30.628;2022-10-01T10:10:37;2.05;;;0.70;;
36213;SDS011;37652;50.400;30.628;2022-10-01T10:12:39;1.10;;;1.00;;
36213;SDS011;37652;50.400;30.628;2022-10-01T10:14:42;2.13;;;0.82;;
36213;SDS011;37652;50.400;30.628;2022-10-01T10:16:43;4.18;;;2.05;;
36213;SDS011;37652;50.400;30.628;2022-10-01T10:18:47;1.67;;;0.80;;
36213;SDS011;37652;50.400;30.628;2022-10-01T10:20:52;1.20;;;0.73;;
36213;SDS011;37652;50.400;30.628;2022-10-01T10:23:07;1.27;;;0.80;;
36213;SDS011;37652;50.400;30.628;2022-10-01T10:25:19;2.28;;;0.77;;
36213;SDS011;37652;50.400;30.628;2022-10-01T10:27:26;4.30;;;2.78;;
36213;SDS011;37652;50.400;30.628;2022-10-01T10:29:33;3.10;;;1.02;;
36213;SDS011;37652;50.400;30.628;2022-10-01T10:31:42;1.10;;;1.00;;
36213;SDS011;37652;50.400;30.628;2022-10-01T10:33:45;4.82;;;1.33;;
36213;SDS011;37652;50.400;30.628;2022-10-01T10:36:01;4.95;;;1.00;;
36213;SDS011;37652;50.400;30.628;2022-10-01T10:38:04;2.17;;;1.15;;
36213;SDS011;37652;50.400;30.628;2022-10-01T10:40:05;1.98;;;1.10;;
36213;SDS011;37652;50.400;30.628;2022-10-01T10:42:07;3.10;;;0.80;;
36213;SDS011;37652;50.400;30.628;2022-10-01T10:44:14;2.53;;;1.15;;
36213;SDS011;37652;50.400;30.628;2022-10-01T10:46:21;3.03;;;1.10;;
36213;SDS011;37652;50.400;30.628;2022-10-01T10:48:36;2.47;;;1.08;;
36213;SDS011;37652;50.400;30.628;2022-10-01T10:50:43;2.17;;;1.45;;
36213;SDS011;37652;50.400;30.628;2022-10-01T10:52:45;1.75;;;1.27;;
36213;SDS011;37652;50.400;30.628;2022-10-01T10:54:46;2.65;;;1.20;;
36213;SDS011;37652;50.400;30.628;2022-10-01T10:56:53;3.95;;;1.10;;
36213;SDS011;37652;50.400;30.628;2022-10-01T10:59:04;2.63;;;1.08;;
36213;SDS011;37652;50.400;30.628;2022-10-01T11:01:12;1.25;;;1.10;;
36213;SDS011;37652;50.400;30.628;2022-10-01T11:03:21;2.35;;;1.30;;
36213;SDS011;37652;50.400;30.628;2022-10-01T11:05:26;1.58;;;1.20;;
36213;SDS011;37652;50.400;30.628;2022-10-01T11:07:30;1.33;;;1.10;;
36213;SDS011;37652;50.400;30.628;2022-10-01T11:09:39;2.20;;;1.60;;
36213;SDS011;37652;50.400;30.628;2022-10-01T11:21:09;5.10;;;1.10;;
36213;SDS011;37652;50.400;30.628;2022-10-01T11:23:17;1.98;;;1.10;;
36213;SDS011;37652;50.400;30.628;2022-10-01T11:25:48;3.40;;;1.30;;
36213;SDS011;37652;50.400;30.628;2022-10-01T11:31:59;1.43;;;1.33;;
36213;SDS011;37652;50.400;30.628;2022-10-01T11:40:38;3.30;;;1.70;;
36213;SDS011;37652;50.400;30.628;2022-10-01T11:42:46;1.52;;;1.42;;
36213;SDS011;37652;50.400;30.628;2022-10-01T11:44:49;1.85;;;1.70;;
36213;SDS011;37652;50.400;30.628;2022-10-01T11:51:07;3.92;;;1.70;;
36213;SDS011;37652;50.400;30.628;2022-10-01T11:53:17;1.90;;;1.67;;
36213;SDS011;37652;50.400;30.628;2022-10-01T11:55:31;1.80;;;1.50;;
36213;SDS011;37652;50.400;30.628;2022-10-01T11:58:01;2.75;;;1.42;;
36213;SDS011;37652;50.400;30.628;2022-10-01T12:00:22;1.83;;;1.67;;
36213;SDS011;37652;50.400;30.628;2022-10-01T12:04:41;4.70;;;2.00;;
36213;SDS011;37652;50.400;30.628;2022-10-01T12:06:50;6.72;;;2.22;;
36213;SDS011;37652;50.400;30.628;2022-10-01T12:08:55;1.95;;;1.73;;
36213;SDS011;37652;50.400;30.628;2022-10-01T12:11:17;2.83;;;1.88;;
36213;SDS011;37652;50.400;30.628;2022-10-01T12:13:32;3.75;;;1.80;;
36213;SDS011;37652;50.400;30.628;2022-10-01T12:15:41;1.77;;;1.60;;
36213;SDS011;37652;50.400;30.628;2022-10-01T12:18:03;2.95;;;2.00;;
36213;SDS011;37652;50.400;30.628;2022-10-01T12:20:34;5.07;;;2.08;;
36213;SDS011;37652;50.400;30.628;2022-10-01T12:22:47;2.28;;;1.77;;
36213;SDS011;37652;50.400;30.628;2022-10-01T12:24:49;4.57;;;2.17;;
36213;SDS011;37652;50.400;30.628;2022-10-01T12:27:00;2.58;;;1.80;;
36213;SDS011;37652;50.400;30.628;2022-10-01T12:31:21;4.75;;;2.90;;
36213;SDS011;37652;50.400;30.628;2022-10-01T12:46:19;5.32;;;2.67;;
36213;SDS011;37652;50.400;30.628;2022-10-01T12:48:28;4.60;;;3.20;;
36213;SDS011;37652;50.400;30.628;2022-10-01T12:55:32;5.75;;;2.42;;
36213;SDS011;37652;50.400;30.628;2022-10-01T13:00:18;5.97;;;4.70;;
36213;SDS011;37652;50.400;30.628;2022-10-01T13:04:44;9.20;;;3.88;;
36213;SDS011;37652;50.400;30.628;2022-10-01T13:14:13;6.07;;;4.77;;
36213;SDS011;37652;50.400;30.628;2022-10-01T13:23:07;9.13;;;5.13;;
36213;SDS011;37652;50.400;30.628;2022-10-01T13:29:56;5.63;;;3.47;;
36213;SDS011;37652;50.400;30.628;2022-10-01T13:32:23;7.80;;;5.00;;
36213;SDS011;37652;50.400;30.628;2022-10-01T13:34:33;25.00;;;14.30;;
36213;SDS011;37652;50.400;30.628;2022-10-01T13:36:34;7.93;;;5.40;;
36213;SDS011;37652;50.400;30.628;2022-10-01T13:38:42;5.38;;;3.38;;
36213;SDS011;37652;50.400;30.628;2022-10-01T13:40:45;7.45;;;5.05;;
36213;SDS011;37652;50.400;30.628;2022-10-01T13:43:01;12.02;;;7.03;;
36213;SDS011;37652;50.400;30.628;2022-10-01T13:45:27;7.18;;;4.32;;
36213;SDS011;37652;50.400;30.628;2022-10-01T13:47:39;6.88;;;3.67;;
36213;SDS011;37652;50.400;30.628;2022-10-01T13:49:39;5.28;;;3.83;;
36213;SDS011;37652;50.400;30.628;2022-10-01T13:51:41;3.50;;;3.20;;
36213;SDS011;37652;50.400;30.628;2022-10-01T13:53:48;7.10;;;4.10;;
36213;SDS011;37652;50.400;30.628;2022-10-01T13:55:57;6.80;;;4.03;;
36213;SDS011;37652;50.400;30.628;2022-10-01T13:58:03;6.40;;;3.20;;
36213;SDS011;37652;50.400;30.628;2022-10-01T14:04:40;4.72;;;3.40;;
36213;SDS011;37652;50.400;30.628;2022-10-01T14:09:02;5.63;;;4.03;;
36213;SDS011;37652;50.400;30.628;2022-10-01T14:11:24;6.85;;;5.18;;
36213;SDS011;37652;50.400;30.628;2022-10-01T14:13:47;5.43;;;4.57;;
36213;SDS011;37652;50.400;30.628;2022-10-01T14:16:08;11.98;;;4.07;;
36213;SDS011;37652;50.400;30.628;2022-10-01T14:18:22;5.88;;;3.13;;
36213;SDS011;37652;50.400;30.628;2022-10-01T14:20:31;4.40;;;2.90;;
36213;SDS011;37652;50.400;30.628;2022-10-01T14:29:16;9.50;;;7.10;;
36213;SDS011;37652;50.400;30.628;2022-10-01T14:38:12;13.63;;;10.90;;
36213;SDS011;37652;50.400;30.628;2022-10-01T14:40:19;13.60;;;11.45;;
36213;SDS011;37652;50.400;30.628;2022-10-01T14:42:21;12.48;;;10.23;;
36213;SDS011;37652;50.400;30.628;2022-10-01T14:48:27;10.48;;;7.75;;
36213;SDS011;37652;50.400;30.628;2022-10-01T14:50:30;8.30;;;7.30;;
36213;SDS011;37652;50.400;30.628;2022-10-01T14:52:33;10.32;;;6.00;;
36213;SDS011;37652;50.400;30.628;2022-10-01T14:56:59;8.13;;;4.85;;
36213;SDS011;37652;50.400;30.628;2022-10-01T15:01:02;10.20;;;5.40;;
36213;SDS011;37652;50.400;30.628;2022-10-01T15:03:11;6.75;;;5.35;;
36213;SDS011;37652;50.400;30.628;2022-10-01T15:05:23;8.35;;;5.03;;
36213;SDS011;37652;50.400;30.628;2022-10-01T15:07:26;9.00;;;5.32;;
36213;SDS011;37652;50.400;30.628;2022-10-01T15:09:32;8.27;;;5.05;;
36213;SDS011;37652;50.400;30.628;2022-10-01T15:11:33;6.63;;;5.55;;
36213;SDS011;37652;50.400;30.628;2022-10-01T15:13:35;8.43;;;5.28;;
36213;SDS011;37652;50.400;30.628;2022-10-01T15:15:42;8.98;;;5.18;;
36213;SDS011;37652;50.400;30.628;2022-10-01T15:17:43;7.03;;;5.03;;
36213;SDS011;37652;50.400;30.628;2022-10-01T15:19:44;5.40;;;4.70;;
36213;SDS011;37652;50.400;30.628;2022-10-01T15:21:55;6.00;;;5.40;;